In Rescue
 
Open Full Screen Window  High Contrast Mode
Wind Gusting 28 knots
22
May 25, 2022 8:20 PM CDT
Weather Information
Wind Direction
  050 °
Wind Speed
  22 kt (25 mph)
Wind Gust
  28 kt (32 mph)
Altimeter
29.94 in
Visibility
10 SM
Temperature
06° C
43° F
Dewpoint
05° C
41° F
Humidity
93%
1hr Rain Fall
00.00 in.
24hr Rain Fall
00.36 in.
Sky Condition
Overcast @ 400 ft
LIFR

METAR KDYT 260120Z AUTO 05022G28KT 10SM OVC004 06/05 A2994 RMK AO2

FAA Disclaimer: The data displayed is for advisory purposes only and is not to be used for flight planning or operations.